ADDS METAR Data INFO
IDs: Format: Raw Decoded Include TAF

Data at: 1514 UTC 23 Oct 2017

KTVK 231455Z AUTO 23010KT 10SM CLR 12/07 A2990 RMK AO2
KTVK 231435Z AUTO 00000KT 10SM CLR 10/06 A2990 RMK AO2
KTVK 231415Z AUTO 22006KT 10SM CLR 11/07 A2991 RMK AO2
KTVK 231355Z AUTO 00000KT 10SM CLR 09/06 A2991 RMK AO2
KTVK 231335Z AUTO 16008KT 10SM CLR 07/05 A2991 RMK AO2
KTVK 231315Z AUTO 14006KT 10SM CLR 06/05 A2991 RMK AO2
KTVK 231255Z AUTO 13007KT 10SM CLR 07/04 A2991 RMK AO2
KTVK 231235Z AUTO 00000KT 10SM CLR 07/04 A2990 RMK AO2
KTVK 231215Z AUTO 22010KT 10SM CLR 08/04 A2989 RMK AO2
KTVK 231155Z AUTO 23007KT 10SM CLR 08/04 A2990 RMK AO2
KTVK 231135Z AUTO 23009KT 10SM CLR 07/04 A2991 RMK AO2
KTVK 231115Z AUTO 00000KT 10SM CLR 05/04 A2991 RMK AO2
KTVK 231055Z AUTO 00000KT 10SM CLR 05/04 A2993 RMK AO2
KTVK 231035Z AUTO 00000KT 10SM CLR 05/04 A2994 RMK AO2
KTVK 231015Z AUTO 00000KT 10SM CLR 05/05 A2994 RMK AO2
KTVK 230955Z AUTO 00000KT 10SM CLR 05/05 A2996 RMK AO2
KTVK 230935Z AUTO 00000KT 10SM CLR 05/05 A2996 RMK AO2
KTVK 230915Z AUTO 00000KT 10SM CLR 05/04 A2998 RMK AO2
KTVK 230855Z AUTO 00000KT 10SM CLR 05/05 A2998 RMK AO2
KTVK 230835Z AUTO 00000KT 10SM CLR 07/06 A2999 RMK AO2
KTVK 230815Z AUTO 00000KT 10SM CLR 06/06 A3000 RMK AO2
KTVK 230755Z AUTO 00000KT 10SM CLR 05/05 A3000 RMK AO2
KTVK 230735Z AUTO 00000KT 10SM CLR 07/06 A3001 RMK AO2
KTVK 230715Z AUTO 00000KT 10SM CLR 07/07 A3000 RMK AO2
KTVK 230655Z AUTO 00000KT 10SM CLR 06/06 A3001 RMK AO2
KTVK 230635Z AUTO 00000KT 10SM CLR 07/07 A3002 RMK AO2
KTVK 230615Z AUTO 00000KT 10SM CLR 07/06 A3003 RMK AO2
KTVK 230555Z AUTO 00000KT 10SM CLR 06/06 A3003 RMK AO2
KTVK 230535Z AUTO 00000KT 10SM CLR 06/06 A3004 RMK AO2
KTVK 230515Z AUTO 00000KT 10SM CLR 07/07 A3004 RMK AO2
KTVK 230455Z AUTO 00000KT 10SM CLR 07/07 A3004 RMK AO2
KTVK 230435Z AUTO 00000KT 10SM CLR 07/07 A3004 RMK AO2
KTVK 230415Z AUTO 00000KT 10SM CLR 08/08 A3004 RMK AO2
KTVK 230355Z AUTO 00000KT 10SM CLR 08/07 A3006 RMK AO2
KTVK 230335Z AUTO 00000KT 10SM CLR 08/08 A3006 RMK AO2
KTVK 230315Z AUTO 00000KT 10SM CLR 08/08 A3007 RMK AO2
KTVK 230255Z AUTO 00000KT 10SM CLR 09/08 A3007 RMK AO2
KTVK 230235Z AUTO 00000KT 10SM CLR 09/08 A3007 RMK AO2
KTVK 230215Z AUTO 00000KT 10SM CLR 09/08 A3008 RMK AO2
KTVK 230155Z AUTO 00000KT 10SM CLR 09/08 A3008 RMK AO2
KTVK 230135Z AUTO 00000KT 10SM CLR 09/08 A3008 RMK AO2
KTVK 230115Z AUTO 00000KT 10SM CLR 10/08 A3008 RMK AO2
KTVK 230055Z AUTO 00000KT 10SM CLR 10/08 A3008 RMK AO2
KTVK 230035Z AUTO 00000KT 10SM CLR 10/08 A3009 RMK AO2
KTVK 230015Z AUTO 00000KT 10SM CLR 11/08 A3008 RMK AO2
KTVK 222355Z AUTO 00000KT 10SM CLR 12/08 A3009 RMK AO2
KTVK 222335Z AUTO 00000KT 10SM CLR 12/09 A3009 RMK AO2
KTVK 222315Z AUTO 00000KT 10SM CLR 13/08 A3009 RMK AO2
KTVK 222255Z AUTO 00000KT 10SM CLR 13/08 A3009 RMK AO2
KTVK 222235Z AUTO 00000KT 10SM CLR 14/08 A3009 RMK AO2
KTVK 222215Z AUTO 00000KT 10SM CLR 14/05 A3009 RMK AO2
KTVK 222155Z AUTO 00000KT 10SM CLR 14/05 A3009 RMK AO2
KTVK 222135Z AUTO 00000KT 10SM CLR 14/05 A3009 RMK AO2
KTVK 222115Z AUTO 00000KT 10SM CLR 14/05 A3010 RMK AO2
KTVK 222055Z AUTO 00000KT 10SM CLR 15/05 A3009 RMK AO2
KTVK 222035Z AUTO 00000KT 10SM CLR 15/06 A3009 RMK AO2
KTVK 222015Z AUTO 00000KT 10SM CLR 15/05 A3008 RMK AO2
KTVK 221955Z AUTO 00000KT 10SM CLR 15/06 A3008 RMK AO2
KTVK 221935Z AUTO 00000KT 10SM CLR 15/07 A3009 RMK AO2
KTVK 221915Z AUTO 35003KT 10SM CLR 15/07 A3010 RMK AO2
KTVK 221855Z AUTO 00000KT 10SM CLR 14/08 A3010 RMK AO2
KTVK 221835Z AUTO 00000KT 10SM CLR 14/09 A3010 RMK AO2
KTVK 221815Z AUTO 31003KT 10SM CLR 13/09 A3011 RMK AO2
KTVK 221755Z AUTO 31006KT 10SM CLR 13/09 A3010 RMK AO2
KTVK 221735Z AUTO 31004KT 10SM CLR 12/09 A3010 RMK AO2
KTVK 221715Z AUTO 31006KT 10SM CLR 12/09 A3010 RMK AO2
KTVK 221655Z AUTO 31008KT 10SM CLR 12/09 A3010 RMK AO2
KTVK 221635Z AUTO 31005KT 10SM CLR 12/10 A3009 RMK AO2
KTVK 221615Z AUTO 31005KT 10SM CLR 11/09 A3008 RMK AO2
KTVK 221555Z AUTO 00000KT 10SM CLR 11/09 A3008 RMK AO2
KTVK 221535Z AUTO 00000KT 10SM CLR 10/09 A3009 RMK AO2
KTVK 221515Z AUTO 00000KT 10SM CLR 10/10 A3007 RMK AO2
KTVK 221455Z AUTO 00000KT 10SM FEW075 10/10 A3007 RMK AO2
KTVK 221435Z AUTO 00000KT 10SM CLR 10/09 A3006 RMK AO2
KTVK 221415Z AUTO 00000KT 10SM FEW001 SCT026 SCT048 09/09 A3006 RMK AO2
KTVK 221355Z AUTO 00000KT 10SM -RA SCT001 BKN033 OVC055 09/09 A3007 RMK AO2 P0002
KTVK 221335Z AUTO 00000KT 10SM -RA BKN001 BKN046 OVC050 09/09 A3005 RMK AO2 P0001
KTVK 221315Z AUTO 00000KT 10SM BKN060 09/09 A3006 RMK AO2
KTVK 221255Z AUTO 00000KT 10SM BKN060 09/09 A3003 RMK AO2
KTVK 221235Z AUTO 00000KT 10SM -RA BKN060 09/09 A3002 RMK AO2
KTVK 221215Z AUTO 32003KT 10SM -RA FEW002 BKN060 09/09 A3002 RMK AO2
KTVK 221155Z AUTO 00000KT 10SM -RA SCT002 BKN037 BKN045 09/09 A3001 RMK AO2 P0001
KTVK 221135Z AUTO 00000KT 10SM -RA BKN002 OVC035 09/09 A3000 RMK AO2 P0001
KTVK 221115Z AUTO 00000KT 10SM -RA OVC002 09/09 A2998 RMK AO2 P0001
KTVK 221055Z AUTO 36007KT 10SM -RA OVC001 09/09 A2997 RMK AO2 P0003
KTVK 221035Z AUTO 01003KT 10SM RA OVC001 09/09 A2998 RMK AO2 P0003
KTVK 221015Z AUTO 00000KT 10SM RA BKN001 OVC033 09/09 A3001 RMK AO2 P0001
KTVK 220955Z AUTO 00000KT 10SM RA BKN001 OVC011 09/09 A3000 RMK AO2 P0005
KTVK 220935Z AUTO 34006KT 10SM -RA BKN001 OVC020 09/09 A2998 RMK AO2 P0004
KTVK 220915Z AUTO 34007KT 10SM RA BKN001 BKN020 OVC039 09/09 A2998 RMK AO2 P0002
KTVK 220855Z AUTO 33005KT 10SM RA SCT001 BKN014 OVC037 10/09 A2999 RMK AO2 P0003
KTVK 220835Z AUTO 33007KT 10SM RA BKN002 BKN011 OVC040 10/09 A2997 RMK AO2 P0002
KTVK 220815Z AUTO 34009G14KT 10SM -RA BKN002 BKN027 OVC050 10/09 A2997 RMK AO2
KTVK 220755Z AUTO 34012G17KT 10SM -RA BKN001 OVC029 10/10 A2996 RMK AO2 P0002
KTVK 220735Z AUTO 32013KT 10SM RA BKN001 BKN019 OVC025 10/10 A2997 RMK AO2 P0001
KTVK 220715Z AUTO 32012G17KT 10SM -RA OVC025 10/10 A2996 RMK AO2
KTVK 220655Z AUTO 32014G17KT 10SM -RA FEW002 BKN023 10/10 A2995 RMK AO2 P0003
KTVK 220635Z AUTO 32012G16KT 10SM -RA BKN001 10/10 A2994 RMK AO2 P0003
KTVK 220615Z AUTO 32011G20KT 10SM RA BKN001 OVC010 10/10 A2991 RMK AO2 P0002
KTVK 220555Z AUTO 32014G18KT 10SM +RA BKN001 OVC009 11/10 A2992 RMK AO2 P0006
KTVK 220535Z AUTO 31012G20KT 10SM RA BKN001 OVC009 11/11 A2996 RMK AO2 P0003
KTVK 220515Z AUTO 32011G14KT 10SM RA BKN001 OVC007 12/12 A2993 RMK AO2 P0001
KTVK 220455Z AUTO 00000KT 10SM -RA SCT001 BKN006 OVC009 12/12 A2995 RMK AO2 P0004
KTVK 220435Z AUTO 33010G18KT 10SM RA BKN001 BKN006 OVC018 12/12 A2992 RMK AO2 P0002
KTVK 220415Z AUTO 30016G22KT 10SM -RA SCT001 OVC006 13/13 A2993 RMK AO2
KTVK 220355Z AUTO 00000KT 10SM -RA BKN002 OVC008 15/15 A2991 RMK AO2 P0003
KTVK 220335Z AUTO 19004KT 10SM -RA SCT001 BKN008 BKN017 15/15 A2993 RMK AO2 P0001
KTVK 220315Z AUTO 00000KT 10SM -RA FEW001 SCT045 15/15 A2988 RMK AO2